sensor_id;sensor_type;location;lat;lon;timestamp;P1;durP1;ratioP1;P2;durP2;ratioP2
72569;SDS011;60594;50.204;8.844;2022-10-28T00:00:09;10.05;;;4.43;;
72569;SDS011;60594;50.204;8.844;2022-10-28T00:02:58;10.85;;;3.75;;
72569;SDS011;60594;50.204;8.844;2022-10-28T00:05:26;6.47;;;3.50;;
72569;SDS011;60594;50.204;8.844;2022-10-28T00:07:54;9.43;;;3.55;;
72569;SDS011;60594;50.204;8.844;2022-10-28T00:10:20;7.07;;;3.80;;
72569;SDS011;60594;50.204;8.844;2022-10-28T00:12:47;6.97;;;3.72;;
72569;SDS011;60594;50.204;8.844;2022-10-28T00:15:13;8.43;;;4.13;;
72569;SDS011;60594;50.204;8.844;2022-10-28T00:17:39;6.90;;;3.75;;
72569;SDS011;60594;50.204;8.844;2022-10-28T00:20:07;8.75;;;4.47;;
72569;SDS011;60594;50.204;8.844;2022-10-28T00:22:34;8.98;;;4.05;;
72569;SDS011;60594;50.204;8.844;2022-10-28T00:25:05;8.27;;;4.18;;
72569;SDS011;60594;50.204;8.844;2022-10-28T00:27:32;11.85;;;4.07;;
72569;SDS011;60594;50.204;8.844;2022-10-28T00:29:58;10.07;;;4.22;;
72569;SDS011;60594;50.204;8.844;2022-10-28T00:32:27;8.80;;;4.45;;
72569;SDS011;60594;50.204;8.844;2022-10-28T00:34:56;7.30;;;4.07;;
72569;SDS011;60594;50.204;8.844;2022-10-28T00:37:23;9.68;;;4.40;;
72569;SDS011;60594;50.204;8.844;2022-10-28T00:39:49;7.65;;;4.05;;
72569;SDS011;60594;50.204;8.844;2022-10-28T00:42:17;9.38;;;3.78;;
72569;SDS011;60594;50.204;8.844;2022-10-28T00:44:59;7.63;;;3.95;;
72569;SDS011;60594;50.204;8.844;2022-10-28T00:47:36;7.18;;;4.15;;
72569;SDS011;60594;50.204;8.844;2022-10-28T00:50:21;9.07;;;4.55;;
72569;SDS011;60594;50.204;8.844;2022-10-28T00:53:25;7.50;;;3.75;;
72569;SDS011;60594;50.204;8.844;2022-10-28T00:55:55;11.75;;;4.28;;
72569;SDS011;60594;50.204;8.844;2022-10-28T00:58:25;8.60;;;3.60;;
72569;SDS011;60594;50.204;8.844;2022-10-28T01:00:53;7.75;;;3.80;;
72569;SDS011;60594;50.204;8.844;2022-10-28T01:03:20;10.23;;;4.32;;
72569;SDS011;60594;50.204;8.844;2022-10-28T01:05:47;9.35;;;4.18;;
72569;SDS011;60594;50.204;8.844;2022-10-28T01:08:14;7.22;;;3.95;;
72569;SDS011;60594;50.204;8.844;2022-10-28T01:14:14;6.82;;;3.33;;
72569;SDS011;60594;50.204;8.844;2022-10-28T01:16:17;6.88;;;3.53;;
72569;SDS011;60594;50.204;8.844;2022-10-28T01:22:19;7.88;;;4.88;;
72569;SDS011;60594;50.204;8.844;2022-10-28T01:28:00;9.45;;;4.30;;
72569;SDS011;60594;50.204;8.844;2022-10-28T01:39:32;9.75;;;4.13;;
72569;SDS011;60594;50.204;8.844;2022-10-28T01:45:10;10.65;;;4.22;;
72569;SDS011;60594;50.204;8.844;2022-10-28T01:53:30;7.45;;;3.85;;
72569;SDS011;60594;50.204;8.844;2022-10-28T01:56:03;7.70;;;3.80;;
72569;SDS011;60594;50.204;8.844;2022-10-28T01:58:33;8.18;;;4.00;;
72569;SDS011;60594;50.204;8.844;2022-10-28T02:01:06;7.88;;;4.18;;
72569;SDS011;60594;50.204;8.844;2022-10-28T02:03:35;8.55;;;4.05;;
72569;SDS011;60594;50.204;8.844;2022-10-28T02:06:02;8.05;;;4.50;;
72569;SDS011;60594;50.204;8.844;2022-10-28T02:11:44;7.40;;;3.33;;
72569;SDS011;60594;50.204;8.844;2022-10-28T02:22:39;7.90;;;3.88;;
72569;SDS011;60594;50.204;8.844;2022-10-28T02:28:04;7.70;;;3.75;;
72569;SDS011;60594;50.204;8.844;2022-10-28T02:30:47;8.25;;;4.45;;
72569;SDS011;60594;50.204;8.844;2022-10-28T02:33:21;9.95;;;4.00;;
72569;SDS011;60594;50.204;8.844;2022-10-28T02:35:53;10.70;;;4.18;;
72569;SDS011;60594;50.204;8.844;2022-10-28T02:38:26;7.75;;;4.03;;
72569;SDS011;60594;50.204;8.844;2022-10-28T02:40:58;8.75;;;3.97;;
72569;SDS011;60594;50.204;8.844;2022-10-28T02:43:28;12.02;;;4.43;;
72569;SDS011;60594;50.204;8.844;2022-10-28T02:45:58;10.00;;;4.70;;
72569;SDS011;60594;50.204;8.844;2022-10-28T02:48:30;8.10;;;4.30;;
72569;SDS011;60594;50.204;8.844;2022-10-28T02:51:19;9.52;;;4.07;;
72569;SDS011;60594;50.204;8.844;2022-10-28T02:54:08;7.90;;;4.07;;
72569;SDS011;60594;50.204;8.844;2022-10-28T02:59:41;8.13;;;4.35;;
72569;SDS011;60594;50.204;8.844;2022-10-28T03:02:08;10.07;;;4.63;;
72569;SDS011;60594;50.204;8.844;2022-10-28T03:04:36;9.23;;;4.45;;
72569;SDS011;60594;50.204;8.844;2022-10-28T03:07:03;7.22;;;4.32;;
72569;SDS011;60594;50.204;8.844;2022-10-28T03:09:30;8.93;;;4.38;;
72569;SDS011;60594;50.204;8.844;2022-10-28T03:11:56;10.32;;;4.13;;
72569;SDS011;60594;50.204;8.844;2022-10-28T03:14:22;8.52;;;4.72;;
72569;SDS011;60594;50.204;8.844;2022-10-28T03:16:49;8.55;;;4.68;;
72569;SDS011;60594;50.204;8.844;2022-10-28T03:19:15;11.52;;;4.40;;
72569;SDS011;60594;50.204;8.844;2022-10-28T03:21:41;8.68;;;4.13;;
72569;SDS011;60594;50.204;8.844;2022-10-28T03:24:07;10.18;;;4.22;;
72569;SDS011;60594;50.204;8.844;2022-10-28T03:26:34;9.40;;;3.65;;
72569;SDS011;60594;50.204;8.844;2022-10-28T03:29:00;11.35;;;4.45;;
72569;SDS011;60594;50.204;8.844;2022-10-28T03:31:26;8.63;;;3.78;;
72569;SDS011;60594;50.204;8.844;2022-10-28T03:33:53;7.07;;;3.63;;
72569;SDS011;60594;50.204;8.844;2022-10-28T03:36:19;9.07;;;4.00;;
72569;SDS011;60594;50.204;8.844;2022-10-28T03:38:45;10.32;;;3.55;;
72569;SDS011;60594;50.204;8.844;2022-10-28T03:41:12;7.32;;;3.92;;
72569;SDS011;60594;50.204;8.844;2022-10-28T03:43:38;7.22;;;3.83;;
72569;SDS011;60594;50.204;8.844;2022-10-28T03:46:04;7.05;;;3.35;;
72569;SDS011;60594;50.204;8.844;2022-10-28T03:48:30;7.32;;;3.70;;
72569;SDS011;60594;50.204;8.844;2022-10-28T03:50:57;7.93;;;3.28;;
72569;SDS011;60594;50.204;8.844;2022-10-28T03:53:23;9.18;;;3.60;;
72569;SDS011;60594;50.204;8.844;2022-10-28T03:58:19;6.85;;;3.85;;
72569;SDS011;60594;50.204;8.844;2022-10-28T04:00:46;6.57;;;3.45;;
72569;SDS011;60594;50.204;8.844;2022-10-28T04:05:40;7.78;;;3.30;;
72569;SDS011;60594;50.204;8.844;2022-10-28T04:08:07;10.73;;;4.20;;
72569;SDS011;60594;50.204;8.844;2022-10-28T04:10:33;8.48;;;3.72;;
72569;SDS011;60594;50.204;8.844;2022-10-28T04:13:00;7.68;;;4.25;;
72569;SDS011;60594;50.204;8.844;2022-10-28T04:15:27;8.13;;;4.18;;
72569;SDS011;60594;50.204;8.844;2022-10-28T04:17:53;8.05;;;4.10;;
72569;SDS011;60594;50.204;8.844;2022-10-28T04:20:20;7.85;;;3.67;;
72569;SDS011;60594;50.204;8.844;2022-10-28T04:22:46;11.20;;;4.25;;
72569;SDS011;60594;50.204;8.844;2022-10-28T04:25:12;8.63;;;3.70;;
72569;SDS011;60594;50.204;8.844;2022-10-28T04:27:39;7.90;;;3.75;;
72569;SDS011;60594;50.204;8.844;2022-10-28T04:30:05;6.50;;;3.42;;
72569;SDS011;60594;50.204;8.844;2022-10-28T04:32:32;8.85;;;3.65;;
72569;SDS011;60594;50.204;8.844;2022-10-28T04:34:58;7.95;;;3.38;;
72569;SDS011;60594;50.204;8.844;2022-10-28T04:37:25;9.65;;;3.50;;
72569;SDS011;60594;50.204;8.844;2022-10-28T04:39:51;6.00;;;3.22;;
72569;SDS011;60594;50.204;8.844;2022-10-28T04:42:17;8.50;;;3.63;;
72569;SDS011;60594;50.204;8.844;2022-10-28T04:44:43;6.63;;;3.60;;
72569;SDS011;60594;50.204;8.844;2022-10-28T04:47:10;8.10;;;3.70;;
72569;SDS011;60594;50.204;8.844;2022-10-28T04:49:36;9.63;;;3.28;;
72569;SDS011;60594;50.204;8.844;2022-10-28T04:52:02;6.78;;;3.15;;
72569;SDS011;60594;50.204;8.844;2022-10-28T04:54:29;8.32;;;3.85;;
72569;SDS011;60594;50.204;8.844;2022-10-28T04:56:55;7.20;;;3.80;;
72569;SDS011;60594;50.204;8.844;2022-10-28T04:59:21;7.90;;;3.88;;
72569;SDS011;60594;50.204;8.844;2022-10-28T05:01:48;12.57;;;5.70;;
72569;SDS011;60594;50.204;8.844;2022-10-28T05:04:14;7.45;;;3.88;;
72569;SDS011;60594;50.204;8.844;2022-10-28T05:06:40;7.13;;;3.60;;
72569;SDS011;60594;50.204;8.844;2022-10-28T05:09:06;7.18;;;3.40;;
72569;SDS011;60594;50.204;8.844;2022-10-28T05:11:33;9.10;;;3.78;;
72569;SDS011;60594;50.204;8.844;2022-10-28T05:13:59;7.90;;;3.67;;
72569;SDS011;60594;50.204;8.844;2022-10-28T05:16:25;7.93;;;4.10;;
72569;SDS011;60594;50.204;8.844;2022-10-28T05:18:51;7.78;;;4.30;;
72569;SDS011;60594;50.204;8.844;2022-10-28T05:21:18;5.78;;;3.28;;
72569;SDS011;60594;50.204;8.844;2022-10-28T05:23:44;6.47;;;3.42;;
72569;SDS011;60594;50.204;8.844;2022-10-28T05:26:12;7.13;;;3.80;;
72569;SDS011;60594;50.204;8.844;2022-10-28T05:28:38;8.38;;;3.90;;
72569;SDS011;60594;50.204;8.844;2022-10-28T05:31:05;8.80;;;5.22;;
72569;SDS011;60594;50.204;8.844;2022-10-28T05:33:31;8.88;;;4.38;;
72569;SDS011;60594;50.204;8.844;2022-10-28T05:35:58;11.10;;;3.92;;
72569;SDS011;60594;50.204;8.844;2022-10-28T05:38:25;14.50;;;4.25;;
72569;SDS011;60594;50.204;8.844;2022-10-28T05:40:51;8.38;;;3.88;;
72569;SDS011;60594;50.204;8.844;2022-10-28T05:43:18;9.85;;;3.67;;
72569;SDS011;60594;50.204;8.844;2022-10-28T05:45:50;7.25;;;3.53;;
72569;SDS011;60594;50.204;8.844;2022-10-28T05:48:18;7.82;;;3.60;;
72569;SDS011;60594;50.204;8.844;2022-10-28T05:50:44;10.55;;;4.18;;
72569;SDS011;60594;50.204;8.844;2022-10-28T05:53:10;9.35;;;3.85;;
72569;SDS011;60594;50.204;8.844;2022-10-28T05:55:37;6.53;;;3.60;;
72569;SDS011;60594;50.204;8.844;2022-10-28T05:58:03;8.95;;;4.07;;
72569;SDS011;60594;50.204;8.844;2022-10-28T06:00:30;14.20;;;3.88;;
72569;SDS011;60594;50.204;8.844;2022-10-28T06:03:03;8.75;;;3.80;;
72569;SDS011;60594;50.204;8.844;2022-10-28T06:05:34;9.57;;;3.90;;
72569;SDS011;60594;50.204;8.844;2022-10-28T06:08:05;7.25;;;3.75;;
72569;SDS011;60594;50.204;8.844;2022-10-28T06:10:31;7.15;;;3.22;;
72569;SDS011;60594;50.204;8.844;2022-10-28T06:12:59;6.43;;;3.33;;
72569;SDS011;60594;50.204;8.844;2022-10-28T06:15:26;6.80;;;3.63;;
72569;SDS011;60594;50.204;8.844;2022-10-28T06:17:52;6.88;;;3.28;;
72569;SDS011;60594;50.204;8.844;2022-10-28T06:20:19;7.03;;;3.47;;
72569;SDS011;60594;50.204;8.844;2022-10-28T06:22:49;7.50;;;2.95;;
72569;SDS011;60594;50.204;8.844;2022-10-28T06:25:16;5.70;;;3.10;;
72569;SDS011;60594;50.204;8.844;2022-10-28T06:27:43;8.02;;;3.78;;
72569;SDS011;60594;50.204;8.844;2022-10-28T06:30:10;8.82;;;3.38;;
72569;SDS011;60594;50.204;8.844;2022-10-28T06:32:41;5.57;;;3.70;;
72569;SDS011;60594;50.204;8.844;2022-10-28T06:35:07;6.40;;;2.75;;
72569;SDS011;60594;50.204;8.844;2022-10-28T06:37:33;6.70;;;3.30;;
72569;SDS011;60594;50.204;8.844;2022-10-28T06:40:00;6.22;;;3.20;;
72569;SDS011;60594;50.204;8.844;2022-10-28T06:42:26;6.60;;;3.22;;
72569;SDS011;60594;50.204;8.844;2022-10-28T06:44:53;5.65;;;3.22;;
72569;SDS011;60594;50.204;8.844;2022-10-28T06:47:20;6.50;;;2.80;;
72569;SDS011;60594;50.204;8.844;2022-10-28T06:49:47;8.32;;;3.25;;
72569;SDS011;60594;50.204;8.844;2022-10-28T06:52:13;6.43;;;2.92;;
72569;SDS011;60594;50.204;8.844;2022-10-28T06:54:39;7.70;;;2.85;;
72569;SDS011;60594;50.204;8.844;2022-10-28T06:57:06;9.50;;;3.65;;
72569;SDS011;60594;50.204;8.844;2022-10-28T06:59:32;7.20;;;3.30;;
72569;SDS011;60594;50.204;8.844;2022-10-28T07:01:58;7.50;;;3.22;;
72569;SDS011;60594;50.204;8.844;2022-10-28T07:04:25;9.27;;;3.40;;
72569;SDS011;60594;50.204;8.844;2022-10-28T07:06:54;7.20;;;3.50;;
72569;SDS011;60594;50.204;8.844;2022-10-28T07:09:21;8.73;;;2.90;;
72569;SDS011;60594;50.204;8.844;2022-10-28T07:11:48;8.98;;;3.45;;
72569;SDS011;60594;50.204;8.844;2022-10-28T07:14:14;5.70;;;3.00;;
72569;SDS011;60594;50.204;8.844;2022-10-28T07:16:40;6.97;;;3.15;;
72569;SDS011;60594;50.204;8.844;2022-10-28T07:19:07;6.50;;;3.03;;
72569;SDS011;60594;50.204;8.844;2022-10-28T07:21:34;7.35;;;3.25;;
72569;SDS011;60594;50.204;8.844;2022-10-28T07:24:01;7.97;;;3.58;;
72569;SDS011;60594;50.204;8.844;2022-10-28T07:26:27;6.57;;;2.97;;
72569;SDS011;60594;50.204;8.844;2022-10-28T07:28:54;7.70;;;3.78;;
72569;SDS011;60594;50.204;8.844;2022-10-28T07:31:20;6.85;;;3.08;;
72569;SDS011;60594;50.204;8.844;2022-10-28T07:33:50;9.13;;;3.03;;
72569;SDS011;60594;50.204;8.844;2022-10-28T07:36:18;7.70;;;3.22;;
72569;SDS011;60594;50.204;8.844;2022-10-28T07:38:47;6.35;;;3.20;;
72569;SDS011;60594;50.204;8.844;2022-10-28T07:41:14;7.97;;;3.00;;
72569;SDS011;60594;50.204;8.844;2022-10-28T07:43:40;7.88;;;3.45;;
72569;SDS011;60594;50.204;8.844;2022-10-28T07:46:06;6.07;;;3.45;;
72569;SDS011;60594;50.204;8.844;2022-10-28T07:48:33;7.47;;;3.00;;
72569;SDS011;60594;50.204;8.844;2022-10-28T07:51:01;7.20;;;3.45;;
72569;SDS011;60594;50.204;8.844;2022-10-28T07:53:29;7.78;;;3.10;;
72569;SDS011;60594;50.204;8.844;2022-10-28T07:55:59;8.98;;;3.05;;
72569;SDS011;60594;50.204;8.844;2022-10-28T07:58:27;8.07;;;3.22;;
72569;SDS011;60594;50.204;8.844;2022-10-28T08:00:54;8.02;;;3.25;;
72569;SDS011;60594;50.204;8.844;2022-10-28T08:03:21;8.23;;;2.95;;
72569;SDS011;60594;50.204;8.844;2022-10-28T08:05:49;6.03;;;2.95;;
72569;SDS011;60594;50.204;8.844;2022-10-28T08:08:16;9.65;;;3.30;;
72569;SDS011;60594;50.204;8.844;2022-10-28T08:10:42;7.50;;;2.95;;
72569;SDS011;60594;50.204;8.844;2022-10-28T08:13:08;7.63;;;2.70;;
72569;SDS011;60594;50.204;8.844;2022-10-28T08:15:35;7.65;;;2.85;;
72569;SDS011;60594;50.204;8.844;2022-10-28T08:18:02;7.00;;;3.15;;
72569;SDS011;60594;50.204;8.844;2022-10-28T08:20:28;5.38;;;3.40;;
72569;SDS011;60594;50.204;8.844;2022-10-28T08:22:54;7.95;;;2.80;;
72569;SDS011;60594;50.204;8.844;2022-10-28T08:25:23;6.32;;;2.90;;
72569;SDS011;60594;50.204;8.844;2022-10-28T08:27:49;5.18;;;2.38;;
72569;SDS011;60594;50.204;8.844;2022-10-28T08:30:15;10.55;;;3.08;;
72569;SDS011;60594;50.204;8.844;2022-10-28T08:32:42;5.55;;;2.80;;
72569;SDS011;60594;50.204;8.844;2022-10-28T08:35:08;6.13;;;2.80;;
72569;SDS011;60594;50.204;8.844;2022-10-28T08:37:34;7.03;;;3.10;;
72569;SDS011;60594;50.204;8.844;2022-10-28T08:40:00;7.50;;;3.83;;
72569;SDS011;60594;50.204;8.844;2022-10-28T08:50:33;6.32;;;2.85;;
72569;SDS011;60594;50.204;8.844;2022-10-28T08:53:14;6.60;;;3.10;;
72569;SDS011;60594;50.204;8.844;2022-10-28T08:55:46;6.97;;;3.03;;
72569;SDS011;60594;50.204;8.844;2022-10-28T08:58:29;8.63;;;3.28;;
72569;SDS011;60594;50.204;8.844;2022-10-28T09:00:59;7.68;;;3.33;;
72569;SDS011;60594;50.204;8.844;2022-10-28T09:03:26;5.93;;;2.80;;
72569;SDS011;60594;50.204;8.844;2022-10-28T09:05:59;6.00;;;3.90;;
72569;SDS011;60594;50.204;8.844;2022-10-28T09:08:28;9.15;;;2.95;;
72569;SDS011;60594;50.204;8.844;2022-10-28T09:16:48;6.70;;;3.63;;
72569;SDS011;60594;50.204;8.844;2022-10-28T09:22:14;6.18;;;3.00;;
72569;SDS011;60594;50.204;8.844;2022-10-28T09:24:51;4.95;;;2.70;;
72569;SDS011;60594;50.204;8.844;2022-10-28T09:30:05;7.45;;;3.30;;
72569;SDS011;60594;50.204;8.844;2022-10-28T09:35:43;9.07;;;3.35;;
72569;SDS011;60594;50.204;8.844;2022-10-28T09:38:14;7.97;;;3.58;;
72569;SDS011;60594;50.204;8.844;2022-10-28T09:41:10;7.30;;;3.60;;
72569;SDS011;60594;50.204;8.844;2022-10-28T09:44:03;7.85;;;3.30;;
72569;SDS011;60594;50.204;8.844;2022-10-28T09:46:38;7.68;;;3.03;;
72569;SDS011;60594;50.204;8.844;2022-10-28T09:49:08;8.05;;;3.00;;
72569;SDS011;60594;50.204;8.844;2022-10-28T09:51:56;4.78;;;2.50;;
72569;SDS011;60594;50.204;8.844;2022-10-28T09:54:34;6.68;;;2.78;;
72569;SDS011;60594;50.204;8.844;2022-10-28T09:57:03;6.03;;;2.75;;
72569;SDS011;60594;50.204;8.844;2022-10-28T09:59:30;6.72;;;2.60;;
72569;SDS011;60594;50.204;8.844;2022-10-28T10:01:57;6.85;;;2.63;;
72569;SDS011;60594;50.204;8.844;2022-10-28T10:04:27;5.68;;;2.60;;
72569;SDS011;60594;50.204;8.844;2022-10-28T10:06:58;6.78;;;3.60;;
72569;SDS011;60594;50.204;8.844;2022-10-28T10:09:31;5.40;;;2.20;;
72569;SDS011;60594;50.204;8.844;2022-10-28T10:12:00;6.25;;;2.58;;
72569;SDS011;60594;50.204;8.844;2022-10-28T10:14:34;8.00;;;3.03;;
72569;SDS011;60594;50.204;8.844;2022-10-28T10:17:05;5.15;;;2.83;;
72569;SDS011;60594;50.204;8.844;2022-10-28T10:22:45;5.30;;;2.20;;
72569;SDS011;60594;50.204;8.844;2022-10-28T10:27:52;6.10;;;2.25;;
72569;SDS011;60594;50.204;8.844;2022-10-28T10:30:36;7.80;;;2.97;;
72569;SDS011;60594;50.204;8.844;2022-10-28T10:38:35;5.25;;;2.10;;
72569;SDS011;60594;50.204;8.844;2022-10-28T10:41:04;4.13;;;2.08;;
72569;SDS011;60594;50.204;8.844;2022-10-28T10:50:53;5.45;;;2.30;;
72569;SDS011;60594;50.204;8.844;2022-10-28T10:53:23;5.95;;;2.30;;
72569;SDS011;60594;50.204;8.844;2022-10-28T10:56:02;5.30;;;2.30;;
72569;SDS011;60594;50.204;8.844;2022-10-28T10:58:32;7.00;;;2.70;;
72569;SDS011;60594;50.204;8.844;2022-10-28T11:01:01;8.23;;;2.55;;
72569;SDS011;60594;50.204;8.844;2022-10-28T11:03:32;7.18;;;2.55;;
72569;SDS011;60594;50.204;8.844;2022-10-28T11:06:02;8.77;;;2.28;;
72569;SDS011;60594;50.204;8.844;2022-10-28T11:08:38;4.93;;;1.90;;
72569;SDS011;60594;50.204;8.844;2022-10-28T11:11:07;7.40;;;2.38;;
72569;SDS011;60594;50.204;8.844;2022-10-28T11:13:36;7.20;;;2.42;;
72569;SDS011;60594;50.204;8.844;2022-10-28T11:16:04;6.22;;;2.47;;
72569;SDS011;60594;50.204;8.844;2022-10-28T11:18:39;6.78;;;2.63;;
72569;SDS011;60594;50.204;8.844;2022-10-28T11:26:51;5.75;;;2.38;;
72569;SDS011;60594;50.204;8.844;2022-10-28T11:29:26;7.75;;;2.65;;
72569;SDS011;60594;50.204;8.844;2022-10-28T11:37:51;6.32;;;2.25;;
72569;SDS011;60594;50.204;8.844;2022-10-28T11:43:31;6.43;;;2.20;;
72569;SDS011;60594;50.204;8.844;2022-10-28T11:52:00;4.10;;;1.85;;
72569;SDS011;60594;50.204;8.844;2022-10-28T11:57:45;7.07;;;3.20;;
72569;SDS011;60594;50.204;8.844;2022-10-28T12:05:58;7.88;;;2.72;;
72569;SDS011;60594;50.204;8.844;2022-10-28T12:16:55;5.40;;;2.15;;
72569;SDS011;60594;50.204;8.844;2022-10-28T12:19:31;5.57;;;2.28;;
72569;SDS011;60594;50.204;8.844;2022-10-28T12:22:07;5.95;;;2.42;;
72569;SDS011;60594;50.204;8.844;2022-10-28T12:24:35;6.63;;;2.25;;
72569;SDS011;60594;50.204;8.844;2022-10-28T12:29:55;6.22;;;2.00;;
72569;SDS011;60594;50.204;8.844;2022-10-28T12:32:28;6.88;;;2.72;;
72569;SDS011;60594;50.204;8.844;2022-10-28T12:35:31;7.72;;;2.60;;
72569;SDS011;60594;50.204;8.844;2022-10-28T12:41:23;6.72;;;3.17;;
72569;SDS011;60594;50.204;8.844;2022-10-28T12:43:32;6.72;;;2.20;;
72569;SDS011;60594;50.204;8.844;2022-10-28T12:46:03;6.97;;;2.38;;
72569;SDS011;60594;50.204;8.844;2022-10-28T12:51:27;10.95;;;2.22;;
72569;SDS011;60594;50.204;8.844;2022-10-28T12:54:20;7.45;;;2.30;;
72569;SDS011;60594;50.204;8.844;2022-10-28T12:59:36;5.20;;;2.35;;
72569;SDS011;60594;50.204;8.844;2022-10-28T13:02:15;6.30;;;2.17;;
72569;SDS011;60594;50.204;8.844;2022-10-28T13:04:47;7.32;;;2.47;;
72569;SDS011;60594;50.204;8.844;2022-10-28T13:07:32;5.82;;;2.53;;
72569;SDS011;60594;50.204;8.844;2022-10-28T13:10:27;6.45;;;2.05;;
72569;SDS011;60594;50.204;8.844;2022-10-28T13:18:26;6.43;;;2.25;;
72569;SDS011;60594;50.204;8.844;2022-10-28T13:26:47;6.25;;;2.40;;
72569;SDS011;60594;50.204;8.844;2022-10-28T13:29:25;6.40;;;2.42;;
72569;SDS011;60594;50.204;8.844;2022-10-28T13:31:54;5.40;;;2.45;;
72569;SDS011;60594;50.204;8.844;2022-10-28T13:34:27;6.18;;;2.33;;
72569;SDS011;60594;50.204;8.844;2022-10-28T13:37:00;5.55;;;2.30;;
72569;SDS011;60594;50.204;8.844;2022-10-28T13:44:53;8.90;;;2.50;;
72569;SDS011;60594;50.204;8.844;2022-10-28T13:47:25;8.70;;;2.15;;
72569;SDS011;60594;50.204;8.844;2022-10-28T13:52:34;7.07;;;2.20;;
72569;SDS011;60594;50.204;8.844;2022-10-28T13:57:48;5.72;;;2.20;;
72569;SDS011;60594;50.204;8.844;2022-10-28T14:02:56;7.75;;;2.10;;
72569;SDS011;60594;50.204;8.844;2022-10-28T14:08:07;7.28;;;2.80;;
72569;SDS011;60594;50.204;8.844;2022-10-28T14:13:21;8.80;;;2.03;;
72569;SDS011;60594;50.204;8.844;2022-10-28T14:15:48;5.15;;;1.80;;
72569;SDS011;60594;50.204;8.844;2022-10-28T14:18:35;6.35;;;2.30;;
72569;SDS011;60594;50.204;8.844;2022-10-28T14:21:03;4.57;;;2.17;;
72569;SDS011;60594;50.204;8.844;2022-10-28T14:26:00;7.97;;;2.03;;
72569;SDS011;60594;50.204;8.844;2022-10-28T14:33:40;7.10;;;1.88;;
72569;SDS011;60594;50.204;8.844;2022-10-28T14:36:42;5.93;;;2.15;;
72569;SDS011;60594;50.204;8.844;2022-10-28T14:42:12;5.88;;;1.80;;
72569;SDS011;60594;50.204;8.844;2022-10-28T14:52:48;5.25;;;2.00;;
72569;SDS011;60594;50.204;8.844;2022-10-28T14:55:21;5.72;;;1.77;;
72569;SDS011;60594;50.204;8.844;2022-10-28T14:57:51;6.47;;;2.40;;
72569;SDS011;60594;50.204;8.844;2022-10-28T15:00:19;8.13;;;1.80;;
72569;SDS011;60594;50.204;8.844;2022-10-28T15:02:46;6.80;;;2.08;;
72569;SDS011;60594;50.204;8.844;2022-10-28T15:05:16;6.60;;;1.60;;
72569;SDS011;60594;50.204;8.844;2022-10-28T15:07:45;5.40;;;1.85;;
72569;SDS011;60594;50.204;8.844;2022-10-28T15:10:25;6.60;;;1.83;;
72569;SDS011;60594;50.204;8.844;2022-10-28T15:12:56;6.82;;;2.22;;
72569;SDS011;60594;50.204;8.844;2022-10-28T15:15:24;7.18;;;2.28;;
72569;SDS011;60594;50.204;8.844;2022-10-28T15:17:54;6.85;;;2.22;;
72569;SDS011;60594;50.204;8.844;2022-10-28T15:20:22;5.95;;;1.80;;
72569;SDS011;60594;50.204;8.844;2022-10-28T15:23:18;7.20;;;2.30;;
72569;SDS011;60594;50.204;8.844;2022-10-28T15:26:06;7.20;;;2.30;;
72569;SDS011;60594;50.204;8.844;2022-10-28T15:28:35;6.13;;;1.83;;
72569;SDS011;60594;50.204;8.844;2022-10-28T15:31:03;7.22;;;2.25;;
72569;SDS011;60594;50.204;8.844;2022-10-28T15:33:31;6.53;;;2.10;;
72569;SDS011;60594;50.204;8.844;2022-10-28T15:38:39;5.60;;;1.77;;
72569;SDS011;60594;50.204;8.844;2022-10-28T15:43:59;7.25;;;2.17;;
72569;SDS011;60594;50.204;8.844;2022-10-28T15:46:26;8.07;;;2.25;;
72569;SDS011;60594;50.204;8.844;2022-10-28T15:48:55;7.57;;;2.67;;
72569;SDS011;60594;50.204;8.844;2022-10-28T15:51:24;4.47;;;1.80;;
72569;SDS011;60594;50.204;8.844;2022-10-28T15:54:17;6.45;;;2.20;;
72569;SDS011;60594;50.204;8.844;2022-10-28T15:56:57;9.80;;;2.50;;
72569;SDS011;60594;50.204;8.844;2022-10-28T15:59:24;9.48;;;2.50;;
72569;SDS011;60594;50.204;8.844;2022-10-28T16:01:52;7.60;;;2.10;;
72569;SDS011;60594;50.204;8.844;2022-10-28T16:06:51;5.72;;;2.15;;
72569;SDS011;60594;50.204;8.844;2022-10-28T16:09:35;8.27;;;2.40;;
72569;SDS011;60594;50.204;8.844;2022-10-28T16:12:26;6.28;;;2.00;;
72569;SDS011;60594;50.204;8.844;2022-10-28T16:15:00;8.65;;;2.97;;
72569;SDS011;60594;50.204;8.844;2022-10-28T16:17:32;7.63;;;2.75;;
72569;SDS011;60594;50.204;8.844;2022-10-28T16:20:08;7.13;;;2.72;;
72569;SDS011;60594;50.204;8.844;2022-10-28T16:22:38;6.30;;;2.58;;
72569;SDS011;60594;50.204;8.844;2022-10-28T16:25:13;7.07;;;2.10;;
72569;SDS011;60594;50.204;8.844;2022-10-28T16:27:43;6.90;;;2.50;;
72569;SDS011;60594;50.204;8.844;2022-10-28T16:30:10;4.80;;;2.40;;
72569;SDS011;60594;50.204;8.844;2022-10-28T16:32:47;5.63;;;2.30;;
72569;SDS011;60594;50.204;8.844;2022-10-28T16:35:19;6.75;;;2.50;;
72569;SDS011;60594;50.204;8.844;2022-10-28T16:37:49;7.25;;;3.00;;
72569;SDS011;60594;50.204;8.844;2022-10-28T16:40:17;7.15;;;2.10;;
72569;SDS011;60594;50.204;8.844;2022-10-28T16:45:13;5.22;;;2.13;;
72569;SDS011;60594;50.204;8.844;2022-10-28T16:47:41;6.65;;;1.90;;
72569;SDS011;60594;50.204;8.844;2022-10-28T16:50:08;7.15;;;2.17;;
72569;SDS011;60594;50.204;8.844;2022-10-28T16:55:05;5.13;;;2.60;;
72569;SDS011;60594;50.204;8.844;2022-10-28T16:57:45;6.15;;;2.38;;
72569;SDS011;60594;50.204;8.844;2022-10-28T17:00:12;11.77;;;5.13;;
72569;SDS011;60594;50.204;8.844;2022-10-28T17:02:40;7.25;;;3.15;;
72569;SDS011;60594;50.204;8.844;2022-10-28T17:05:25;7.80;;;2.20;;
72569;SDS011;60594;50.204;8.844;2022-10-28T17:07:53;5.47;;;2.13;;
72569;SDS011;60594;50.204;8.844;2022-10-28T17:10:23;8.70;;;2.70;;
72569;SDS011;60594;50.204;8.844;2022-10-28T17:12:51;5.35;;;2.60;;
72569;SDS011;60594;50.204;8.844;2022-10-28T17:15:21;8.43;;;2.53;;
72569;SDS011;60594;50.204;8.844;2022-10-28T17:17:49;6.95;;;2.55;;
72569;SDS011;60594;50.204;8.844;2022-10-28T17:20:18;4.43;;;2.03;;
72569;SDS011;60594;50.204;8.844;2022-10-28T17:22:45;5.95;;;2.30;;
72569;SDS011;60594;50.204;8.844;2022-10-28T17:25:12;5.80;;;2.33;;
72569;SDS011;60594;50.204;8.844;2022-10-28T17:27:38;5.53;;;2.13;;
72569;SDS011;60594;50.204;8.844;2022-10-28T17:30:05;7.47;;;2.60;;
72569;SDS011;60594;50.204;8.844;2022-10-28T17:32:32;9.63;;;2.90;;
72569;SDS011;60594;50.204;8.844;2022-10-28T17:34:58;6.18;;;2.20;;
72569;SDS011;60594;50.204;8.844;2022-10-28T17:37:25;5.55;;;1.77;;
72569;SDS011;60594;50.204;8.844;2022-10-28T17:39:53;5.65;;;2.22;;
72569;SDS011;60594;50.204;8.844;2022-10-28T17:42:21;6.82;;;2.88;;
72569;SDS011;60594;50.204;8.844;2022-10-28T17:44:49;7.97;;;2.80;;
72569;SDS011;60594;50.204;8.844;2022-10-28T17:47:16;8.27;;;2.22;;
72569;SDS011;60594;50.204;8.844;2022-10-28T17:49:43;8.35;;;2.72;;
72569;SDS011;60594;50.204;8.844;2022-10-28T17:52:11;5.53;;;2.20;;
72569;SDS011;60594;50.204;8.844;2022-10-28T17:54:38;5.95;;;2.47;;
72569;SDS011;60594;50.204;8.844;2022-10-28T17:57:04;5.82;;;2.45;;
72569;SDS011;60594;50.204;8.844;2022-10-28T17:59:33;8.20;;;2.25;;
72569;SDS011;60594;50.204;8.844;2022-10-28T18:02:00;7.78;;;2.50;;
72569;SDS011;60594;50.204;8.844;2022-10-28T18:04:27;9.88;;;3.00;;
72569;SDS011;60594;50.204;8.844;2022-10-28T18:06:55;5.75;;;2.45;;
72569;SDS011;60594;50.204;8.844;2022-10-28T18:09:23;8.05;;;2.45;;
72569;SDS011;60594;50.204;8.844;2022-10-28T18:11:56;6.28;;;2.60;;
72569;SDS011;60594;50.204;8.844;2022-10-28T18:14:27;7.90;;;2.83;;
72569;SDS011;60594;50.204;8.844;2022-10-28T18:16:54;5.35;;;2.63;;
72569;SDS011;60594;50.204;8.844;2022-10-28T18:19:21;7.95;;;3.08;;
72569;SDS011;60594;50.204;8.844;2022-10-28T18:21:48;5.60;;;3.28;;
72569;SDS011;60594;50.204;8.844;2022-10-28T18:24:14;7.20;;;3.20;;